Time;durP1;ratioP1;P1;durP2;ratioP2;P2;SDS_P1;SDS_P2;PMS_P1;PMS_P2;Temp;Humidity;BMP_temperature;BMP_pressure;BME280_temperature;BME280_humidity;BME280_pressure;Samples;Min_cycle;Max_cycle;Signal;HPM_P1;HPM_P2
2021/05/09 00:00:08;;;;;;;9.13;4.43;;;;;;;17.87;57.61;99960.56;4960137;28;20054;-69
2021/05/09 00:02:34;;;;;;;8.68;4.65;;;;;;;17.79;57.56;99958.09;4960078;28;20054;-71
2021/05/09 00:05:02;;;;;;;8.18;4.03;;;;;;;17.54;58.07;99962.56;4971239;28;20066;-71
2021/05/09 00:07:29;;;;;;;8.95;3.90;;;;;;;17.57;58.41;99945.88;4971391;28;20053;-72
2021/05/09 00:09:56;;;;;;;9.70;4.60;;;;;;;17.61;58.45;99949.50;4961614;28;20430;-71
2021/05/09 00:12:24;;;;;;;10.07;4.43;;;;;;;17.82;57.48;99943.38;4970184;28;20069;-70
2021/05/09 00:14:52;;;;;;;7.85;4.55;;;;;;;17.64;57.76;99948.75;4971250;28;20051;-71
2021/05/09 00:17:19;;;;;;;9.23;4.75;;;;;;;17.76;57.89;99947.72;4970861;28;20050;-71
2021/05/09 00:19:46;;;;;;;12.25;4.40;;;;;;;17.32;58.84;99947.50;4970936;28;20355;-71
2021/05/09 00:22:13;;;;;;;9.20;4.10;;;;;;;17.56;58.50;99935.09;4970301;28;20214;-70
2021/05/09 00:24:40;;;;;;;8.38;4.22;;;;;;;17.57;58.59;99923.59;4970659;28;20070;-71
2021/05/09 00:27:06;;;;;;;8.73;4.28;;;;;;;17.45;58.86;99926.59;4961189;28;20047;-72
2021/05/09 00:29:34;;;;;;;11.77;4.63;;;;;;;17.72;58.13;99927.34;4959227;28;20109;-69
2021/05/09 00:32:01;;;;;;;6.80;3.92;;;;;;;17.70;58.12;99924.13;4960667;28;20050;-70
2021/05/09 00:34:28;;;;;;;11.85;5.20;;;;;;;17.76;57.65;99911.50;4970177;28;20256;-71
2021/05/09 00:36:55;;;;;;;9.82;4.15;;;;;;;17.52;58.37;99909.22;4960802;28;20490;-71
2021/05/09 00:39:22;;;;;;;7.97;4.10;;;;;;;17.69;58.00;99903.06;4961145;28;20051;-71
2021/05/09 00:41:49;;;;;;;11.35;4.65;;;;;;;17.58;58.32;99902.94;4970796;28;20046;-71
2021/05/09 00:44:15;;;;;;;9.20;4.13;;;;;;;17.55;58.28;99891.75;4960896;28;20057;-72
2021/05/09 00:46:43;;;;;;;7.55;4.47;;;;;;;17.50;58.48;99890.13;4969851;28;20051;-70
2021/05/09 00:49:09;;;;;;;7.93;4.50;;;;;;;17.64;58.18;99876.31;4943864;28;20133;-71
2021/05/09 00:51:36;;;;;;;8.30;4.18;;;;;;;17.63;57.94;99873.94;4970432;28;20054;-71
2021/05/09 00:54:04;;;;;;;11.20;4.03;;;;;;;17.82;57.29;99870.94;4943379;28;20057;-71
2021/05/09 00:56:31;;;;;;;6.35;3.70;;;;;;;17.68;57.33;99866.03;4960523;28;20448;-70
2021/05/09 00:58:59;;;;;;;9.07;3.90;;;;;;;17.32;58.39;99864.00;4943999;28;20047;-70
2021/05/09 01:01:26;;;;;;;8.77;3.92;;;;;;;17.13;59.20;99863.34;4959963;28;20050;-70
2021/05/09 01:03:54;;;;;;;8.57;3.92;;;;;;;17.48;58.33;99861.84;4969166;28;20078;-71
2021/05/09 01:06:21;;;;;;;8.02;3.88;;;;;;;17.54;57.72;99854.72;4944565;28;20058;-71
2021/05/09 01:08:48;;;;;;;6.32;4.00;;;;;;;17.56;57.64;99857.13;4959493;28;20502;-71
2021/05/09 01:11:15;;;;;;;9.35;3.88;;;;;;;17.71;57.42;99858.91;4958578;28;20422;-71
2021/05/09 01:13:42;;;;;;;7.05;3.75;;;;;;;17.69;57.79;99847.34;4958913;28;20054;-71
2021/05/09 01:16:09;;;;;;;8.43;3.75;;;;;;;17.67;57.74;99853.31;4943425;28;20043;-72
2021/05/09 01:18:36;;;;;;;11.20;4.35;;;;;;;17.68;57.38;99840.97;4928256;28;20376;-70
2021/05/09 01:21:03;;;;;;;7.97;3.55;;;;;;;17.63;57.37;99841.31;4959385;28;20050;-69
2021/05/09 01:23:30;;;;;;;7.88;3.63;;;;;;;17.54;57.64;99829.69;4958155;28;20560;-71
2021/05/09 01:25:57;;;;;;;9.90;3.63;;;;;;;17.50;57.99;99823.28;4959328;28;20077;-69
2021/05/09 01:28:24;;;;;;;8.48;3.42;;;;;;;17.62;57.61;99822.22;4972419;28;20059;-70
2021/05/09 01:30:51;;;;;;;7.55;3.70;;;;;;;17.72;57.32;99810.38;4971040;28;20057;-70
2021/05/09 01:33:19;;;;;;;6.57;3.45;;;;;;;17.36;58.43;99803.59;4971995;28;20050;-70
2021/05/09 01:35:46;;;;;;;6.57;3.33;;;;;;;17.34;58.08;99803.19;4970114;28;20478;-70
2021/05/09 01:38:13;;;;;;;7.28;3.35;;;;;;;17.47;58.05;99789.84;4969435;28;20051;-70
2021/05/09 01:40:41;;;;;;;8.13;3.90;;;;;;;17.34;58.38;99778.13;4968888;28;20050;-69
2021/05/09 01:43:09;;;;;;;7.10;4.00;;;;;;;17.31;58.56;99794.78;4952705;28;20045;-69
2021/05/09 01:45:36;;;;;;;9.23;3.85;;;;;;;17.43;58.30;99803.69;4953303;28;20074;-70
2021/05/09 01:48:04;;;;;;;9.77;4.07;;;;;;;17.34;58.63;99792.03;4937611;28;20058;-71
2021/05/09 01:50:31;;;;;;;8.88;4.30;;;;;;;17.32;58.57;99799.97;4970723;28;20054;-71
2021/05/09 01:53:02;;;;;;;9.38;3.80;;;;;;;17.26;58.84;99798.69;4954714;28;20388;-72
2021/05/09 01:55:30;;;;;;;8.52;3.63;;;;;;;17.19;59.48;99795.06;4954209;28;20050;-70
2021/05/09 01:58:21;;;;;;;6.47;3.60;;;;;;;17.32;58.94;99774.13;4971224;28;20407;-71
2021/05/09 02:01:10;;;;;;;7.50;3.60;;;;;;;17.30;59.21;99774.50;4957282;28;20085;-70
2021/05/09 02:03:47;;;;;;;8.82;3.97;;;;;;;17.44;58.45;99780.22;4953734;28;20058;-71
2021/05/09 02:06:14;;;;;;;8.00;3.58;;;;;;;17.45;58.83;99776.25;4954667;28;20055;-71
2021/05/09 02:08:42;;;;;;;7.07;3.47;;;;;;;17.72;58.27;99758.25;4938801;28;20074;-70
2021/05/09 02:11:24;;;;;;;7.05;3.20;;;;;;;17.35;59.44;99756.63;4953842;28;20053;-69
2021/05/09 02:13:55;;;;;;;7.63;3.17;;;;;;;17.36;59.16;99756.28;4953958;28;20043;-71
2021/05/09 02:16:27;;;;;;;8.50;3.38;;;;;;;17.30;59.27;99760.56;4954805;28;20054;-69
2021/05/09 02:18:54;;;;;;;9.40;3.60;;;;;;;17.47;58.93;99746.06;4954046;28;20059;-70
2021/05/09 02:21:28;;;;;;;7.47;3.00;;;;;;;17.34;59.85;99741.13;4939145;28;20058;-70
2021/05/09 02:23:55;;;;;;;7.13;3.10;;;;;;;17.29;59.87;99735.91;4953496;28;20050;-69
2021/05/09 02:26:22;;;;;;;6.05;3.40;;;;;;;17.42;59.43;99732.47;4953739;28;20050;-69
2021/05/09 02:28:49;;;;;;;6.57;3.10;;;;;;;17.43;59.88;99730.50;4938429;28;20402;-71
2021/05/09 02:31:17;;;;;;;7.82;3.53;;;;;;;17.35;60.21;99726.03;4954186;28;20149;-70
2021/05/09 02:33:44;;;;;;;6.97;3.45;;;;;;;17.35;59.98;99726.81;4954149;28;20061;-70
2021/05/09 02:36:11;;;;;;;6.70;3.20;;;;;;;17.28;60.17;99714.81;4972379;28;20050;-72
2021/05/09 02:38:38;;;;;;;6.25;3.42;;;;;;;17.41;60.23;99718.94;4972825;28;20051;-72
2021/05/09 02:41:05;;;;;;;6.93;3.28;;;;;;;17.55;59.56;99719.09;4955161;28;20411;-69
2021/05/09 02:43:32;;;;;;;7.07;3.25;;;;;;;17.74;59.15;99710.50;4954968;28;20050;-69
2021/05/09 02:45:59;;;;;;;6.78;3.38;;;;;;;17.85;58.71;99705.84;4938644;28;20055;-70
2021/05/09 02:48:26;;;;;;;5.65;3.30;;;;;;;17.59;59.21;99703.22;4938517;28;20054;-71
2021/05/09 02:50:53;;;;;;;11.07;3.35;;;;;;;17.45;59.92;99697.50;4954381;28;20051;-70
2021/05/09 02:53:21;;;;;;;5.78;3.17;;;;;;;17.50;59.87;99703.56;4954529;28;20061;-71
2021/05/09 02:55:50;;;;;;;8.93;3.65;;;;;;;17.39;60.26;99693.47;4952655;28;20055;-70
2021/05/09 02:58:16;;;;;;;6.55;3.30;;;;;;;17.48;60.26;99699.53;4953934;28;20514;-70
2021/05/09 03:00:44;;;;;;;7.88;3.60;;;;;;;17.54;60.03;99696.00;4922341;28;20053;-71
2021/05/09 03:03:18;;;;;;;7.15;3.28;;;;;;;17.54;60.03;99690.44;4953742;28;20058;-70
2021/05/09 03:05:47;;;;;;;9.48;3.47;;;;;;;17.37;60.64;99693.03;4933343;29;20403;-70
2021/05/09 03:08:16;;;;;;;6.60;3.07;;;;;;;17.35;60.67;99684.25;4935361;29;20039;-70
2021/05/09 03:10:46;;;;;;;7.80;3.53;;;;;;;17.37;60.78;99685.50;4935681;28;20047;-70
2021/05/09 03:13:15;;;;;;;6.25;3.42;;;;;;;17.55;60.64;99680.94;4938552;29;20051;-69
2021/05/09 03:15:42;;;;;;;6.78;3.35;;;;;;;17.60;60.20;99671.41;4954220;28;20051;-69
2021/05/09 03:18:09;;;;;;;8.07;3.60;;;;;;;17.30;61.32;99668.72;4955533;29;20051;-70
2021/05/09 03:20:37;;;;;;;6.47;3.53;;;;;;;16.88;62.88;99671.06;4955808;28;20039;-70
2021/05/09 03:23:04;;;;;;;8.50;3.30;;;;;;;17.08;62.47;99671.69;4955730;28;20043;-70
2021/05/09 03:25:31;;;;;;;7.28;3.20;;;;;;;16.95;62.95;99657.25;4971129;28;20062;-70
2021/05/09 03:27:59;;;;;;;5.63;3.33;;;;;;;17.27;62.05;99652.78;4957888;28;20054;-70
2021/05/09 03:30:26;;;;;;;6.63;3.25;;;;;;;17.24;61.97;99648.00;4974954;28;20142;-70
2021/05/09 03:32:56;;;;;;;5.05;3.15;;;;;;;17.17;62.10;99645.16;4975254;28;20047;-70
2021/05/09 03:35:24;;;;;;;7.10;3.47;;;;;;;17.23;62.12;99638.03;4975737;28;20047;-70
2021/05/09 03:37:51;;;;;;;8.02;3.45;;;;;;;16.93;63.07;99642.13;4974713;28;20050;-71
2021/05/09 03:40:17;;;;;;;6.72;3.42;;;;;;;16.82;63.82;99642.78;4956750;28;20085;-70
2021/05/09 03:42:44;;;;;;;7.15;3.58;;;;;;;16.95;63.45;99629.41;4974258;28;20046;-70
2021/05/09 03:45:12;;;;;;;7.13;3.47;;;;;;;16.59;64.93;99635.78;4957122;28;20054;-71
2021/05/09 03:47:39;;;;;;;6.18;3.35;;;;;;;16.43;65.83;99637.94;4956565;28;20051;-70
2021/05/09 03:50:06;;;;;;;10.98;3.40;;;;;;;16.47;66.12;99624.91;4973547;28;20050;-70
2021/05/09 03:52:33;;;;;;;7.25;3.40;;;;;;;16.37;66.27;99628.34;4940887;28;20039;-72
2021/05/09 03:55:00;;;;;;;8.60;3.28;;;;;;;16.35;66.49;99625.13;4973957;28;20055;-71
2021/05/09 03:57:27;;;;;;;6.30;3.00;;;;;;;16.18;67.19;99620.16;4956073;28;20054;-70
2021/05/09 03:59:54;;;;;;;6.53;3.55;;;;;;;16.31;67.03;99610.38;4956747;28;20135;-70
2021/05/09 04:02:21;;;;;;;7.43;3.55;;;;;;;16.44;66.59;99611.75;4974293;28;20061;-72
2021/05/09 04:04:49;;;;;;;9.63;3.58;;;;;;;16.26;66.99;99599.63;4973840;28;20070;-71
2021/05/09 04:07:16;;;;;;;7.20;3.25;;;;;;;16.15;67.56;99595.88;4973519;28;20058;-70
2021/05/09 04:09:43;;;;;;;5.22;3.08;;;;;;;16.27;67.44;99592.88;4956604;28;20407;-70
2021/05/09 04:12:10;;;;;;;6.65;3.42;;;;;;;16.27;67.35;99599.22;4973854;28;20054;-70
2021/05/09 04:14:37;;;;;;;6.50;3.10;;;;;;;16.30;67.61;99604.03;4940842;28;20051;-70
2021/05/09 04:17:04;;;;;;;6.03;3.22;;;;;;;16.24;67.86;99596.41;4956537;28;20142;-70
2021/05/09 04:19:35;;;;;;;5.95;3.10;;;;;;;16.02;68.75;99589.78;4956493;28;20051;-70
2021/05/09 04:22:02;;;;;;;6.93;3.50;;;;;;;16.05;68.59;99586.25;4940341;28;20046;-71
2021/05/09 04:24:29;;;;;;;6.88;3.58;;;;;;;16.26;68.24;99594.06;4955857;28;20061;-70
2021/05/09 04:26:56;;;;;;;7.63;3.80;;;;;;;16.20;68.36;99593.59;4955485;28;20064;-70
2021/05/09 04:29:23;;;;;;;5.55;3.22;;;;;;;16.39;67.93;99592.59;4972321;28;20074;-71
2021/05/09 04:31:50;;;;;;;6.88;3.33;;;;;;;16.45;67.66;99585.53;4925014;28;20627;-71
2021/05/09 04:34:17;;;;;;;4.70;3.03;;;;;;;16.60;67.09;99579.78;4973675;28;20051;-71
2021/05/09 04:36:44;;;;;;;5.63;3.15;;;;;;;16.46;67.62;99557.41;4973717;28;20410;-72
2021/05/09 04:39:10;;;;;;;8.43;3.58;;;;;;;16.36;67.80;99546.94;4973201;28;20042;-69
2021/05/09 04:41:37;;;;;;;6.53;3.63;;;;;;;16.40;67.91;99528.34;4973473;28;20066;-70
2021/05/09 04:44:05;;;;;;;6.90;3.42;;;;;;;16.70;67.11;99528.25;4956242;28;20067;-71
2021/05/09 04:46:31;;;;;;;8.40;3.47;;;;;;;16.60;67.40;99531.72;4973284;28;20043;-70
2021/05/09 04:48:59;;;;;;;7.95;3.33;;;;;;;16.30;68.67;99548.44;4936492;29;20527;-69
2021/05/09 04:51:25;;;;;;;7.60;3.20;;;;;;;16.51;68.16;99559.84;4953990;28;20051;-70
2021/05/09 04:53:58;;;;;;;6.90;3.25;;;;;;;16.74;67.25;99596.63;4968065;28;20058;-70
2021/05/09 04:56:25;;;;;;;6.25;3.28;;;;;;;16.52;68.24;99633.72;4972946;28;20066;-70
2021/05/09 04:58:56;;;;;;;6.82;3.17;;;;;;;16.83;67.24;99638.03;4973105;28;20059;-71
2021/05/09 05:01:23;;;;;;;6.35;3.53;;;;;;;16.80;67.02;99636.84;4971712;28;20428;-71
2021/05/09 05:03:50;;;;;;;9.07;3.10;;;;;;;17.03;66.31;99619.97;4973118;28;20059;-70
2021/05/09 05:06:18;;;;;;;6.72;3.13;;;;;;;17.08;65.90;99619.63;4972046;28;20467;-70
2021/05/09 05:08:45;;;;;;;6.70;3.42;;;;;;;17.09;66.14;99610.09;4972713;28;20050;-70
2021/05/09 05:11:14;;;;;;;6.45;3.20;;;;;;;16.93;66.50;99587.28;4972656;28;20050;-69
2021/05/09 05:13:41;;;;;;;8.15;3.35;;;;;;;16.65;67.66;99587.78;4955873;28;20051;-70
2021/05/09 05:16:09;;;;;;;8.45;3.72;;;;;;;16.62;68.26;99599.69;4972739;28;20058;-70
2021/05/09 05:18:36;;;;;;;8.65;3.00;;;;;;;16.98;67.23;99595.25;4972779;28;20054;-70
2021/05/09 05:21:05;;;;;;;9.02;3.00;;;;;;;17.25;65.99;99601.47;4939367;28;20123;-69
2021/05/09 05:23:34;;;;;;;7.07;3.03;;;;;;;17.15;66.34;99583.50;4972757;28;20062;-71
2021/05/09 05:26:01;;;;;;;7.78;3.13;;;;;;;16.86;67.53;99592.75;4922987;28;20051;-70
2021/05/09 05:28:28;;;;;;;8.70;3.03;;;;;;;16.72;68.54;99592.63;4955554;28;20042;-70
2021/05/09 05:30:55;;;;;;;7.60;3.13;;;;;;;16.96;68.09;99594.88;4972283;28;20067;-70
2021/05/09 05:33:32;;;;;;;9.52;3.00;;;;;;;17.11;68.02;99593.81;4971569;28;20043;-71
2021/05/09 05:36:00;;;;;;;6.28;3.22;;;;;;;17.07;68.28;99584.63;4972520;28;20051;-69
2021/05/09 05:38:27;;;;;;;5.32;3.35;;;;;;;17.14;68.36;99598.59;4972385;28;20038;-70
2021/05/09 05:40:56;;;;;;;7.65;3.10;;;;;;;17.23;68.23;99604.66;4972188;28;20046;-70
2021/05/09 05:43:25;;;;;;;6.32;3.15;;;;;;;17.46;68.11;99598.88;4955460;28;20070;-70
2021/05/09 05:45:53;;;;;;;8.32;3.10;;;;;;;17.50;69.21;99602.50;4972144;28;20053;-71
2021/05/09 05:48:20;;;;;;;8.70;3.35;;;;;;;17.63;69.15;99590.66;4972102;28;20046;-71
2021/05/09 05:50:48;;;;;;;6.07;3.22;;;;;;;17.46;69.93;99583.00;4971958;28;20049;-70
2021/05/09 05:53:19;;;;;;;8.90;3.65;;;;;;;17.28;71.64;99598.72;4955210;28;20043;-71
2021/05/09 05:55:47;;;;;;;13.05;3.97;;;;;;;17.26;72.70;99591.97;4972086;28;20075;-70
2021/05/09 05:58:15;;;;;;;7.32;3.65;;;;;;;17.24;73.16;99595.13;4972122;28;20046;-72
2021/05/09 06:00:42;;;;;;;9.95;3.80;;;;;;;17.19;73.86;99594.69;4971915;28;20410;-71
2021/05/09 06:03:09;;;;;;;6.68;3.30;;;;;;;17.25;73.70;99598.69;4954532;28;20062;-71
2021/05/09 06:05:36;;;;;;;10.35;3.88;;;;;;;17.37;73.43;99606.75;4954615;28;20427;-71
2021/05/09 06:08:04;;;;;;;7.25;4.03;;;;;;;17.40;73.30;99606.78;4971883;28;20379;-71
2021/05/09 06:10:31;;;;;;;8.25;3.60;;;;;;;17.66;72.45;99600.25;4954573;28;20051;-70
2021/05/09 06:12:58;;;;;;;7.95;3.80;;;;;;;17.29;73.84;99605.09;4954542;28;20039;-71
2021/05/09 06:15:25;;;;;;;10.48;4.32;;;;;;;17.25;74.16;99596.72;4972069;28;20050;-72
2021/05/09 06:17:52;;;;;;;8.93;4.00;;;;;;;17.39;73.82;99599.63;4971580;28;20054;-71
2021/05/09 06:20:19;;;;;;;6.63;3.63;;;;;;;17.30;74.07;99609.47;4954567;28;20055;-70
2021/05/09 06:22:46;;;;;;;7.63;4.13;;;;;;;17.41;73.54;99613.94;4971649;28;20062;-70
2021/05/09 06:25:14;;;;;;;7.43;3.63;;;;;;;17.37;73.73;99613.13;4955201;28;20407;-71
2021/05/09 06:27:41;;;;;;;8.68;4.00;;;;;;;17.44;73.79;99606.78;4972099;28;20046;-71
2021/05/09 06:30:08;;;;;;;8.30;4.38;;;;;;;17.38;73.74;99608.34;4954558;28;20046;-70
2021/05/09 06:32:35;;;;;;;6.78;3.65;;;;;;;17.53;72.55;99607.31;4971191;28;20039;-71
2021/05/09 06:35:02;;;;;;;9.60;3.90;;;;;;;17.63;72.61;99601.81;4953960;28;20047;-72
2021/05/09 06:37:30;;;;;;;7.13;3.83;;;;;;;17.58;73.00;99610.53;4971717;28;20047;-72
2021/05/09 06:39:58;;;;;;;9.25;3.88;;;;;;;17.85;71.38;99594.41;4954632;28;20422;-71
2021/05/09 06:42:25;;;;;;;8.10;3.80;;;;;;;17.67;71.74;99607.41;4971070;28;20051;-69
2021/05/09 06:45:05;;;;;;;6.97;4.03;;;;;;;17.90;70.82;99602.38;4972496;28;20057;-71
2021/05/09 06:47:32;;;;;;;9.80;3.70;;;;;;;17.94;70.56;99592.84;4975648;28;20062;-71
2021/05/09 06:49:59;;;;;;;5.95;3.40;;;;;;;17.87;70.69;99592.81;4975379;28;20057;-70
2021/05/09 06:52:26;;;;;;;9.45;3.60;;;;;;;17.95;70.62;99608.41;4957968;28;20047;-71
2021/05/09 06:54:54;;;;;;;8.20;3.97;;;;;;;18.07;70.31;99601.69;4975392;28;20054;-70
2021/05/09 06:57:21;;;;;;;6.72;3.97;;;;;;;18.16;70.24;99601.31;4958382;28;20070;-72
2021/05/09 06:59:48;;;;;;;7.20;3.50;;;;;;;18.39;69.57;99591.47;4976252;28;20057;-71
2021/05/09 07:02:15;;;;;;;8.10;4.05;;;;;;;18.67;68.32;99590.81;4975551;28;20043;-71
2021/05/09 07:04:42;;;;;;;6.70;3.63;;;;;;;18.55;68.23;99588.38;4957671;28;20406;-71
2021/05/09 07:07:09;;;;;;;6.30;3.42;;;;;;;18.33;69.19;99581.88;4975270;28;20053;-70
2021/05/09 07:09:38;;;;;;;5.75;3.40;;;;;;;18.79;67.12;99587.63;4975156;28;20051;-70
2021/05/09 07:12:06;;;;;;;9.85;3.83;;;;;;;18.57;67.93;99597.94;4974824;28;20050;-71
2021/05/09 07:14:34;;;;;;;6.22;3.45;;;;;;;18.49;68.38;99598.31;4974652;28;20051;-70
2021/05/09 07:17:02;;;;;;;8.18;3.35;;;;;;;18.86;67.22;99596.81;4974928;28;20047;-71
2021/05/09 07:19:29;;;;;;;7.85;3.15;;;;;;;19.07;66.15;99593.25;4957386;28;20083;-70
2021/05/09 07:21:59;;;;;;;7.93;3.25;;;;;;;19.32;65.38;99602.47;4957199;28;20403;-71
2021/05/09 07:24:26;;;;;;;7.50;3.40;;;;;;;19.39;64.72;99612.84;4974054;28;20086;-72
2021/05/09 07:26:53;;;;;;;7.25;3.25;;;;;;;19.67;65.04;99610.84;4974514;28;20042;-70
2021/05/09 07:29:20;;;;;;;6.43;3.25;;;;;;;19.54;65.78;99622.81;4974341;28;20054;-70
2021/05/09 07:31:47;;;;;;;7.45;3.35;;;;;;;19.49;65.61;99610.03;4974304;28;20054;-70
2021/05/09 07:34:14;;;;;;;8.25;3.22;;;;;;;19.35;65.76;99617.63;4973967;28;20050;-70
2021/05/09 07:36:41;;;;;;;5.95;2.92;;;;;;;19.26;65.99;99609.63;4974600;28;20051;-70
2021/05/09 07:39:09;;;;;;;6.00;3.42;;;;;;;19.43;65.48;99608.06;4957635;28;20035;-73
2021/05/09 07:41:35;;;;;;;9.73;4.20;;;;;;;19.59;65.22;99614.03;4974895;28;20047;-70
2021/05/09 07:44:04;;;;;;;8.32;3.63;;;;;;;19.53;64.54;99610.03;4974865;28;20054;-71
2021/05/09 07:46:31;;;;;;;7.55;3.17;;;;;;;19.48;65.61;99611.25;4957664;28;20053;-70
2021/05/09 07:48:58;;;;;;;6.75;3.45;;;;;;;19.45;65.65;99609.25;4974829;28;20050;-69
2021/05/09 07:51:25;;;;;;;7.55;3.60;;;;;;;19.51;65.72;99618.03;4974438;28;20042;-71
2021/05/09 07:53:52;;;;;;;8.32;3.50;;;;;;;19.63;65.43;99610.03;4974207;28;20050;-70
2021/05/09 07:56:19;;;;;;;5.95;3.22;;;;;;;19.63;65.60;99606.47;4973412;28;20502;-71
2021/05/09 07:58:46;;;;;;;7.03;3.25;;;;;;;19.78;64.82;99613.63;4974415;28;20058;-71
2021/05/09 08:01:13;;;;;;;9.00;3.25;;;;;;;20.09;63.34;99612.75;4956105;28;20050;-72
2021/05/09 08:03:40;;;;;;;7.50;3.45;;;;;;;20.19;63.06;99617.53;4956844;28;20050;-70
2021/05/09 08:06:07;;;;;;;6.40;3.20;;;;;;;20.29;61.99;99605.53;4956559;28;20395;-70
2021/05/09 08:08:34;;;;;;;8.02;2.83;;;;;;;20.29;61.82;99621.50;4956823;28;20051;-73
2021/05/09 08:11:02;;;;;;;9.07;4.10;;;;;;;20.39;61.76;99615.06;4964994;28;20043;-71
2021/05/09 08:13:31;;;;;;;20.33;12.32;;;;;;;20.39;61.70;99621.47;4955077;28;20043;-71
2021/05/09 08:15:59;;;;;;;12.40;7.95;;;;;;;20.41;61.88;99609.88;4973458;28;20046;-70
2021/05/09 08:18:26;;;;;;;9.43;5.88;;;;;;;20.48;61.54;99612.66;4973654;28;20050;-72
2021/05/09 08:20:56;;;;;;;5.63;3.15;;;;;;;20.35;62.27;99619.88;4974458;28;20502;-72
2021/05/09 08:23:24;;;;;;;5.93;3.63;;;;;;;20.37;61.83;99612.69;4983072;28;20058;-71
2021/05/09 08:25:51;;;;;;;6.88;3.00;;;;;;;20.49;61.67;99603.84;4973755;28;20068;-69
2021/05/09 08:28:17;;;;;;;7.07;3.35;;;;;;;20.41;61.36;99601.47;4956734;28;20248;-72
2021/05/09 08:30:45;;;;;;;6.15;3.00;;;;;;;20.61;60.41;99606.19;4956661;28;20062;-71
2021/05/09 08:33:12;;;;;;;10.93;3.17;;;;;;;20.77;59.91;99606.50;4973821;28;20460;-71
2021/05/09 08:35:38;;;;;;;5.55;3.17;;;;;;;20.88;59.38;99596.03;4941518;28;20263;-71
2021/05/09 08:38:06;;;;;;;7.82;3.33;;;;;;;20.91;59.11;99597.22;4956411;28;20042;-72
2021/05/09 08:40:37;;;;;;;7.68;3.35;;;;;;;20.77;59.59;99588.91;4953623;28;20092;-72
2021/05/09 08:43:04;;;;;;;4.80;2.67;;;;;;;20.64;59.50;99612.97;4971229;28;20058;-69
2021/05/09 08:45:31;;;;;;;6.43;3.10;;;;;;;20.92;58.50;99610.03;4969464;28;20062;-72
2021/05/09 08:47:59;;;;;;;8.75;3.20;;;;;;;21.05;58.46;99602.75;4961592;28;20265;-71
2021/05/09 08:50:27;;;;;;;7.72;3.17;;;;;;;21.31;57.59;99602.16;4960798;28;20567;-71
2021/05/09 08:52:55;;;;;;;6.03;2.85;;;;;;;21.18;57.52;99585.03;4970547;28;20479;-70
2021/05/09 08:55:26;;;;;;;9.57;3.20;;;;;;;21.13;57.35;99587.50;4937027;28;20047;-70
2021/05/09 08:57:55;;;;;;;9.88;3.22;;;;;;;21.31;57.16;99593.75;4942724;28;20047;-71
2021/05/09 09:00:23;;;;;;;8.93;3.28;;;;;;;21.49;56.58;99602.00;4960390;28;20043;-71
2021/05/09 09:03:03;;;;;;;8.20;3.20;;;;;;;21.52;56.09;99601.97;4958625;28;20045;-70
2021/05/09 09:05:38;;;;;;;5.97;2.80;;;;;;;;;;4970200;28;20499;-70
2021/05/09 09:08:06;;;;;;;6.38;2.83;;;;;;;21.77;55.46;99604.56;4969836;28;20621;-71
2021/05/09 09:10:35;;;;;;;7.13;2.72;;;;;;;21.45;55.80;99601.22;4960412;28;20038;-70
2021/05/09 09:13:03;;;;;;;9.68;2.90;;;;;;;21.82;55.26;99606.94;4959136;28;20526;-69
2021/05/09 09:15:52;;;;;;;8.88;2.92;;;;;;;21.90;55.02;99595.22;4943732;28;20057;-70
2021/05/09 09:18:41;;;;;;;9.05;2.88;;;;;;;21.96;54.67;99598.38;4959711;28;20053;-71
2021/05/09 09:21:27;;;;;;;5.38;2.90;;;;;;;22.28;54.08;99585.56;4969935;28;20061;-69
2021/05/09 09:23:57;;;;;;;7.47;2.95;;;;;;;22.16;53.90;99594.53;4958309;28;20729;-71
2021/05/09 09:26:30;;;;;;;9.25;3.80;;;;;;;22.50;53.62;99594.53;4960074;28;20054;-71
2021/05/09 09:28:58;;;;;;;10.02;3.38;;;;;;;22.56;52.85;99587.25;4968761;28;20054;-70
2021/05/09 09:31:35;;;;;;;14.82;3.55;;;;;;;22.52;53.29;99592.09;4970090;28;20093;-70
2021/05/09 09:34:04;;;;;;;7.40;2.90;;;;;;;22.53;53.13;99590.06;4969258;28;20051;-73
2021/05/09 09:36:31;;;;;;;10.80;6.13;;;;;;;22.76;52.82;99593.81;4960510;28;20398;-70
2021/05/09 09:38:58;;;;;;;5.78;3.42;;;;;;;23.09;51.73;99583.69;4939485;28;20043;-71
2021/05/09 09:41:25;;;;;;;6.90;2.65;;;;;;;23.25;50.63;99586.66;4942510;28;20058;-71
2021/05/09 09:44:11;;;;;;;5.75;2.80;;;;;;;23.26;49.91;99583.41;4957931;28;20509;-69
2021/05/09 09:46:40;;;;;;;8.65;2.83;;;;;;;23.25;50.02;99583.84;4959420;28;20058;-68
2021/05/09 09:49:30;;;;;;;9.80;2.93;;;;;;;23.26;50.18;99591.03;4968555;28;20073;-69
2021/05/09 09:52:03;;;;;;;9.77;3.05;;;;;;;23.57;49.56;99577.72;4968202;28;20053;-70
2021/05/09 09:54:38;;;;;;;6.32;2.75;;;;;;;23.38;49.46;99573.59;4968605;28;20038;-70
2021/05/09 09:57:26;;;;;;;5.28;2.70;;;;;;;23.59;48.91;99569.66;4941917;28;20054;-71
2021/05/09 10:00:06;;;;;;;4.88;2.78;;;;;;;23.22;49.18;99567.84;4946948;28;20510;-71
2021/05/09 10:02:33;;;;;;;7.40;3.20;;;;;;;23.30;49.63;99572.94;4958275;28;20981;-70
2021/05/09 10:05:02;;;;;;;6.45;3.00;;;;;;;23.36;49.31;99562.03;4968878;28;20062;-70
2021/05/09 10:07:28;;;;;;;6.05;2.92;;;;;;;23.66;48.41;99567.50;4968454;28;20483;-69
2021/05/09 10:09:57;;;;;;;7.13;3.13;;;;;;;23.65;48.25;99560.28;4959349;28;20054;-70
2021/05/09 10:12:24;;;;;;;6.13;2.90;;;;;;;23.83;47.52;99559.97;4967492;28;20051;-69
2021/05/09 10:14:54;;;;;;;8.02;2.90;;;;;;;24.04;46.99;99551.16;4966702;28;20043;-70
2021/05/09 10:17:23;;;;;;;6.97;2.92;;;;;;;24.07;46.81;99536.22;4957606;28;20066;-66
2021/05/09 10:19:51;;;;;;;5.18;2.75;;;;;;;23.98;46.79;99553.63;4968266;28;20160;-68
2021/05/09 10:22:29;;;;;;;6.70;2.50;;;;;;;24.02;46.78;99559.22;4955310;28;20050;-68
2021/05/09 10:24:58;;;;;;;8.60;3.10;;;;;;;24.07;46.07;99544.66;4956268;28;20062;-69
2021/05/09 10:27:38;;;;;;;8.43;2.95;;;;;;;24.30;45.18;99542.53;4957301;28;20077;-69
2021/05/09 10:30:10;;;;;;;7.22;2.72;;;;;;;24.15;45.36;99540.44;4967365;28;20046;-68
2021/05/09 10:32:39;;;;;;;7.00;2.67;;;;;;;24.23;44.51;99522.22;4966911;28;20054;-69
2021/05/09 10:35:08;;;;;;;5.75;2.70;;;;;;;24.26;43.69;99519.31;4967652;28;20084;-70
2021/05/09 10:37:35;;;;;;;6.22;2.95;;;;;;;24.41;44.53;99520.59;4940872;28;20058;-70
2021/05/09 10:40:21;;;;;;;6.63;2.72;;;;;;;24.30;45.05;99516.44;4955476;28;20491;-67
2021/05/09 10:43:09;;;;;;;6.70;3.30;;;;;;;24.07;44.88;99514.50;4966418;28;20051;-67
2021/05/09 10:45:36;;;;;;;9.57;6.22;;;;;;;24.43;44.80;99506.88;4967519;28;20054;-70
2021/05/09 10:48:33;;;;;;;11.23;5.70;;;;;;;24.38;44.23;99507.41;4940661;28;20503;-67
2021/05/09 10:51:06;;;;;;;7.78;3.00;;;;;;;24.65;44.19;99501.56;4967333;28;20073;-72
2021/05/09 10:53:36;;;;;;;6.60;2.67;;;;;;;24.70;42.94;99511.53;4940181;28;20039;-71
2021/05/09 10:56:10;;;;;;;7.47;2.78;;;;;;;24.53;43.07;99502.22;4967511;28;20046;-71
2021/05/09 10:58:49;;;;;;;13.02;3.33;;;;;;;24.80;42.84;99491.56;4967405;28;20046;-69
2021/05/09 11:01:20;;;;;;;8.13;3.00;;;;;;;24.75;42.48;99492.09;4968309;28;20078;-70
2021/05/09 11:03:54;;;;;;;6.85;3.10;;;;;;;24.84;42.46;99489.47;4967996;28;20047;-68
2021/05/09 11:06:39;;;;;;;11.45;3.33;;;;;;;24.82;41.91;99485.50;4968177;28;20474;-69
2021/05/09 11:09:21;;;;;;;10.35;3.35;;;;;;;24.69;43.28;99482.59;4958810;28;20054;-72
2021/05/09 11:11:49;;;;;;;7.85;3.35;;;;;;;25.00;42.29;99480.25;4967660;28;20062;-66
2021/05/09 11:14:18;;;;;;;7.43;2.95;;;;;;;25.06;41.72;99476.44;4967250;28;20047;-68
2021/05/09 11:17:13;;;;;;;6.60;3.00;;;;;;;25.24;40.78;99464.72;4958936;28;20495;-68
2021/05/09 11:19:44;;;;;;;8.35;2.90;;;;;;;25.38;40.13;99465.19;4965855;28;20059;-71
2021/05/09 11:22:11;;;;;;;11.68;3.30;;;;;;;25.07;40.27;99471.59;4966818;28;20054;-73
2021/05/09 11:24:40;;;;;;;5.57;2.67;;;;;;;25.33;40.07;99474.09;4941794;28;20407;-72
2021/05/09 11:27:12;;;;;;;7.32;3.13;;;;;;;25.54;40.03;99458.72;4967506;28;20066;-69
2021/05/09 11:29:41;;;;;;;7.75;3.05;;;;;;;25.61;40.15;99469.00;4958039;28;20058;-73
2021/05/09 11:32:15;;;;;;;5.32;2.97;;;;;;;25.39;40.25;99468.75;4958909;28;20055;-69
2021/05/09 11:34:53;;;;;;;6.65;2.97;;;;;;;25.44;39.99;99457.75;4960975;28;20042;-72
2021/05/09 11:37:23;;;;;;;7.03;2.80;;;;;;;25.19;40.60;99460.38;4970927;28;20135;-71
2021/05/09 11:39:51;;;;;;;7.13;3.20;;;;;;;25.34;40.58;99463.63;4970778;28;20066;-70
2021/05/09 11:42:19;;;;;;;7.43;3.05;;;;;;;25.30;40.72;99463.72;4959904;28;20055;-68